Map

Track Data

SID SEASON NUMBER BASIN SUBBASIN NAME ISO_TIME NATURE LAT LON WMO_WIND WMO_PRES WMO_AGENCY TRACK_TYPE DIST2LAND LANDFALL IFLAG USA_AGENCY USA_ATCF_ID USA_LAT USA_LON USA_RECORD USA_STATUS USA_WIND USA_PRES USA_SSHS USA_R34_NE USA_R34_SE USA_R34_SW USA_R34_NW USA_R50_NE USA_R50_SE USA_R50_SW USA_R50_NW USA_R64_NE USA_R64_SE USA_R64_SW USA_R64_NW USA_POCI USA_ROCI USA_RMW USA_EYE TOKYO_LAT TOKYO_LON TOKYO_GRADE TOKYO_WIND TOKYO_PRES TOKYO_R50_DIR TOKYO_R50_LONG TOKYO_R50_SHORT TOKYO_R30_DIR TOKYO_R30_LONG TOKYO_R30_SHORT TOKYO_LAND CMA_LAT CMA_LON CMA_CAT CMA_WIND CMA_PRES HKO_LAT HKO_LON HKO_CAT HKO_WIND HKO_PRES NEWDELHI_LAT NEWDELHI_LON NEWDELHI_GRADE NEWDELHI_WIND NEWDELHI_PRES NEWDELHI_CI NEWDELHI_DP NEWDELHI_POCI REUNION_LAT REUNION_LON REUNION_TYPE REUNION_WIND REUNION_PRES REUNION_TNUM REUNION_CI REUNION_RMW REUNION_R34_NE REUNION_R34_SE REUNION_R34_SW REUNION_R34_NW REUNION_R50_NE REUNION_R50_SE REUNION_R50_SW REUNION_R50_NW REUNION_R64_NE REUNION_R64_SE REUNION_R64_SW REUNION_R64_NW BOM_LAT BOM_LON BOM_TYPE BOM_WIND BOM_PRES BOM_TNUM BOM_CI BOM_RMW BOM_R34_NE BOM_R34_SE BOM_R34_SW BOM_R34_NW BOM_R50_NE BOM_R50_SE BOM_R50_SW BOM_R50_NW BOM_R64_NE BOM_R64_SE BOM_R64_SW BOM_R64_NW BOM_ROCI BOM_POCI BOM_EYE BOM_POS_METHOD BOM_PRES_METHOD NADI_LAT NADI_LON NADI_CAT NADI_WIND NADI_PRES WELLINGTON_LAT WELLINGTON_LON WELLINGTON_WIND WELLINGTON_PRES DS824_LAT DS824_LON DS824_STAGE DS824_WIND DS824_PRES TD9636_LAT TD9636_LON TD9636_STAGE TD9636_WIND TD9636_PRES TD9635_LAT TD9635_LON TD9635_WIND TD9635_PRES TD9635_ROCI NEUMANN_LAT NEUMANN_LON NEUMANN_CLASS NEUMANN_WIND NEUMANN_PRES MLC_LAT MLC_LON MLC_CLASS MLC_WIND MLC_PRES USA_GUST BOM_GUST BOM_GUST_PER REUNION_GUST REUNION_GUST_PER USA_SEAHGT USA_SEARAD_NE USA_SEARAD_SE USA_SEARAD_SW USA_SEARAD_NW STORM_SPEED STORM_DIR
1895308N21329 1895 46 NA NA NOT_NAMED 1895-11-03 12:00:00 SS 21.0000 -31.5000 main 1495 1495 _____________O -1 21.0000 -31.5000 SS 35 16 297
1895308N21329 1895 46 NA NA NOT_NAMED 1895-11-03 15:00:00 SS 21.3606 -32.2467 main 1566 1566 _____________P -1 21.3606 -32.2467 SS 35 16 297
1895308N21329 1895 46 NA NA NOT_NAMED 1895-11-03 18:00:00 SS 21.7000 -33.0000 main 1649 1649 _____________O -1 21.7000 -33.0000 SS 35 15 295
1895308N21329 1895 46 NA NA NOT_NAMED 1895-11-03 21:00:00 SS 22.0073 -33.7579 main 1732 1732 _____________P -1 22.0073 -33.7579 SS 35 15 293
1895308N21329 1895 46 NA NA NOT_NAMED 1895-11-04 00:00:00 SS 22.3000 -34.5000 main 1802 1802 _____________O -1 22.3000 -34.5000 SS 35 15 294
1895308N21329 1895 46 NA NA NOT_NAMED 1895-11-04 03:00:00 SS 22.5997 -35.2153 main 1874 1874 _____________P -1 22.5997 -35.2153 SS 35 14 295
1895308N21329 1895 46 NA NA NOT_NAMED 1895-11-04 06:00:00 SS 22.9000 -35.9000 main 1945 1945 _____________O -1 22.9000 -35.9000 SS 35 14 296
1895308N21329 1895 46 NA NA NOT_NAMED 1895-11-04 09:00:00 SS 23.2228 -36.6247 main 2017 2017 _____________P -1 23.2228 -36.6247 SS 37 13 297
1895308N21329 1895 46 NA NA NOT_NAMED 1895-11-04 12:00:00 TS 23.5000 -37.2000 main 2079 2079 _____________O -1 23.5000 -37.2000 TS 40 9 301
1895308N21329 1895 46 NA NA NOT_NAMED 1895-11-04 15:00:00 TS 23.6795 -37.4605 main 2110 2110 _____________P -1 23.6795 -37.4605 TS 40 5 309
1895308N21329 1895 46 NA NA NOT_NAMED 1895-11-04 18:00:00 TS 23.8000 -37.6000 main 2120 2120 _____________O -1 23.8000 -37.6000 TS 40 4 302
1895308N21329 1895 46 NA NA NOT_NAMED 1895-11-04 21:00:00 TS 23.9000 -37.8426 main 2141 2141 _____________P -1 23.9000 -37.8426 TS 40 5 294
1895308N21329 1895 46 NA NA NOT_NAMED 1895-11-05 00:00:00 TS 24.0000 -38.1000 main 2172 2172 _____________O -1 24.0000 -38.1000 TS 40 5 298
1895308N21329 1895 46 NA NA NOT_NAMED 1895-11-05 03:00:00 TS 24.1500 -38.3574 main 2195 2195 _____________P -1 24.1500 -38.3574 TS 40 5 303
1895308N21329 1895 46 NA NA NOT_NAMED 1895-11-05 06:00:00 TS 24.3000 -38.6000 main 2212 2212 _____________O -1 24.3000 -38.6000 TS 40 5 301
1895308N21329 1895 46 NA NA NOT_NAMED 1895-11-05 09:00:00 TS 24.4150 -38.8375 main 2228 2228 _____________P -1 24.4150 -38.8375 TS 40 4 299
1895308N21329 1895 46 NA NA NOT_NAMED 1895-11-05 12:00:00 TS 24.5000 -39.0000 main 2245 2242 _____________O -1 24.5000 -39.0000 TS 40 2 309
1895308N21329 1895 46 NA NA NOT_NAMED 1895-11-05 15:00:00 TS 24.5575 -39.0301 main 2242 2242 _____________P -1 24.5575 -39.0301 TS 40 1 0
1895308N21329 1895 46 NA NA NOT_NAMED 1895-11-05 18:00:00 TS 24.6000 -39.0000 main 2242 2242 _____________O -1 24.6000 -39.0000 TS 40 1 0
1895308N21329 1895 46 NA NA NOT_NAMED 1895-11-05 21:00:00 TS 24.6500 -39.0000 main 2239 2239 _____________P -1 24.6500 -39.0000 TS 37 1 0
1895308N21329 1895 46 NA NA NOT_NAMED 1895-11-06 00:00:00 TS 24.7000 -39.0000 main 2239 2236 _____________O -1 24.7000 -39.0000 TS 35 1 0
1895308N21329 1895 46 NA NA NOT_NAMED 1895-11-06 03:00:00 TS 24.7575 -39.0000 main 2236 2236 _____________P -1 24.7575 -39.0000 TS 35 1 0
1895308N21329 1895 46 NA NA NOT_NAMED 1895-11-06 06:00:00 TS 24.8000 -39.0000 main 2236 2236 _____________O -1 24.8000 -39.0000 TS 35 1 272
1895308N21329 1895 46 NA NA NOT_NAMED 1895-11-06 09:00:00 TS 24.7619 -39.1119 main 2246 2236 _____________P -1 24.7619 -39.1119 TS 35 0 0
1895308N21329 1895 46 NA NA NOT_NAMED 1895-11-06 12:00:00 TS 24.8000 -39.0000 main 2236 2172 _____________O -1 24.8000 -39.0000 TS 35 7 66
1895308N21329 1895 46 NA NA NOT_NAMED 1895-11-06 15:00:00 TS 25.0632 -38.3633 main 2169 2073 _____________P -1 25.0632 -38.3633 TS 35 15 66
1895308N21329 1895 46 NA NA NOT_NAMED 1895-11-06 18:00:00 TS 25.4000 -37.5000 main 2073 2000 _____________O -1 25.4000 -37.5000 TS 35 16 68
1895308N21329 1895 46 NA NA NOT_NAMED 1895-11-06 21:00:00 TS 25.6496 -36.7494 main 1990 1914 _____________P -1 25.6496 -36.7494 TS 32 14 70
1895308N21329 1895 46 NA NA NOT_NAMED 1895-11-07 00:00:00 TS 25.9000 -36.0000 main 1914 1839 _____________O -1 25.9000 -36.0000 TD 30 15 68
1895308N21329 1895 46 NA NA NOT_NAMED 1895-11-07 03:00:00 TS 26.1996 -35.2499 main 1829 1755 _____________P -1 26.1996 -35.2499 TD 30 15 66
1895308N21329 1895 46 NA NA NOT_NAMED 1895-11-07 06:00:00 TS 26.5000 -34.5000 main 1755 1682 _____________O -1 26.5000 -34.5000 TD 30 14 70
1895308N21329 1895 46 NA NA NOT_NAMED 1895-11-07 09:00:00 TS 26.6890 -33.7850 main 1682 1599 _____________P -1 26.6890 -33.7850 TD 30 14 70
1895308N21329 1895 46 NA NA NOT_NAMED 1895-11-07 12:00:00 TS 27.0000 -33.0000 main 1599 1502 _____________O -1 27.0000 -33.0000 TD 30 18 59
1895308N21329 1895 46 NA NA NOT_NAMED 1895-11-07 15:00:00 TS 27.6326 -32.0383 main 1492 1396 _____________P -1 27.6326 -32.0383 TD 30 23 52
1895308N21329 1895 46 NA NA NOT_NAMED 1895-11-07 18:00:00 ET 28.4000 -31.0000 main 1387 1297 _____________O -1 28.4000 -31.0000 EX 30 23 51
1895308N21329 1895 46 NA NA NOT_NAMED 1895-11-07 21:00:00 ET 29.0618 -29.9975 main 1288 1204 _____________P -1 29.0618 -29.9975 EX 30 22 51
1895308N21329 1895 46 NA NA NOT_NAMED 1895-11-08 00:00:00 ET 29.8000 -29.0000 main 1195 1123 _____________O -1 29.8000 -29.0000 EX 30 25 45
1895308N21329 1895 46 NA NA NOT_NAMED 1895-11-08 03:00:00 ET 30.7942 -28.0018 main 1116 1056 _____________P -1 30.7942 -28.0018 EX 27 26 42
1895308N21329 1895 46 NA NA NOT_NAMED 1895-11-08 06:00:00 ET 31.7000 -27.0000 main 1051 987 _____________O -1 31.7000 -27.0000 EX 25 22 51
1895308N21329 1895 46 NA NA NOT_NAMED 1895-11-08 09:00:00 ET 32.1816 -25.9966 main 983 922 _____________P -1 32.1816 -25.9966 EX 25 19 65
1895308N21329 1895 46 NA NA NOT_NAMED 1895-11-08 12:00:00 ET 32.5000 -25.0000 main 914 859 _____________O -1 32.5000 -25.0000 EX 25 18 68
1895308N21329 1895 46 NA NA NOT_NAMED 1895-11-08 15:00:00 ET 32.8741 -24.0033 main 858 819 _____________P -1 32.8741 -24.0033 EX 25 19 65
1895308N21329 1895 46 NA NA NOT_NAMED 1895-11-08 18:00:00 ET 33.3000 -23.0000 main 812 _____________O -1 33.3000 -23.0000 EX 25 19 63

About IBTrACS Database

This database is a web-friendly format of International Best Track Archive for Climate Stewardship (IBTrACS), a global best track data archive curated by NOAA dating back to 1842.

Updated: 2021-10-21